createdAt,value
2023-06-03T00:00:06.443Z,15.14
2023-06-03T00:05:08.444Z,14.92
2023-06-03T00:10:10.562Z,14.65
2023-06-03T00:15:12.499Z,14.60
2023-06-03T00:20:14.947Z,14.51
2023-06-03T00:25:16.846Z,14.54
2023-06-03T00:30:18.605Z,14.43
2023-06-03T00:35:20.551Z,14.46
2023-06-03T00:40:22.373Z,14.41
2023-06-03T00:45:24.292Z,14.29
2023-06-03T00:50:26.392Z,14.15
2023-06-03T00:55:28.379Z,13.86
2023-06-03T01:00:30.096Z,13.68
2023-06-03T01:05:32.056Z,13.40
2023-06-03T01:11:08.941Z,13.18
2023-06-03T01:16:13.947Z,13.13
2023-06-03T01:21:16.361Z,13.14
2023-06-03T01:26:18.200Z,13.21
2023-06-03T01:31:20.225Z,13.82
2023-06-03T01:36:22.225Z,14.14
2023-06-03T01:41:25.373Z,14.14
2023-06-03T01:46:27.810Z,14.15
2023-06-03T01:51:29.696Z,14.04
2023-06-03T01:56:32.072Z,13.60
2023-06-03T02:01:35.754Z,13.10
2023-06-03T02:06:37.436Z,12.78
2023-06-03T02:11:47.124Z,12.56
2023-06-03T02:16:49.066Z,12.39
2023-06-03T02:21:50.950Z,12.26
2023-06-03T02:26:52.604Z,12.17
2023-06-03T02:31:57.717Z,12.10
2023-06-03T02:36:59.454Z,12.04
2023-06-03T02:42:01.423Z,12.03
2023-06-03T02:47:06.958Z,11.96
2023-06-03T02:52:08.891Z,11.96
2023-06-03T02:57:10.879Z,12.04
2023-06-03T03:02:12.761Z,12.07
2023-06-03T03:07:14.716Z,12.08
2023-06-03T03:12:16.710Z,12.10
2023-06-03T03:17:20.488Z,12.05
2023-06-03T03:22:23.294Z,11.85
2023-06-03T03:27:26.156Z,11.86
2023-06-03T03:32:28.402Z,11.93
2023-06-03T03:37:30.673Z,11.86
2023-06-03T03:42:32.947Z,11.90
2023-06-03T03:47:35.628Z,12.10
2023-06-03T03:52:38.148Z,12.10
2023-06-03T03:57:40.634Z,12.14
2023-06-03T04:02:43.729Z,12.18
2023-06-03T04:07:46.964Z,12.30
2023-06-03T04:12:49.114Z,12.43
2023-06-03T04:17:53.002Z,12.68
2023-06-03T04:22:55.385Z,12.88
2023-06-03T04:27:57.477Z,13.07
2023-06-03T04:32:59.546Z,13.21
2023-06-03T04:38:04.760Z,13.40
2023-06-03T04:43:06.711Z,13.53
2023-06-03T04:48:13.355Z,13.68
2023-06-03T04:53:15.356Z,13.83
2023-06-03T04:58:17.691Z,14.06
2023-06-03T05:03:19.868Z,14.17
2023-06-03T05:08:22.112Z,14.80
2023-06-03T05:13:27.063Z,16.45
2023-06-03T05:18:29.076Z,17.49
2023-06-03T05:23:31.011Z,18.78
2023-06-03T05:28:33.156Z,19.71
2023-06-03T05:33:35.680Z,20.27
2023-06-03T05:38:43.050Z,20.34
2023-06-03T05:43:47.574Z,19.59
2023-06-03T05:48:49.379Z,18.25
2023-06-03T05:53:52.295Z,18.10
2023-06-03T05:58:58.594Z,18.47
2023-06-03T06:04:01.798Z,18.23
2023-06-03T06:09:04.345Z,18.80
2023-06-03T06:14:06.571Z,19.71
2023-06-03T06:19:08.398Z,19.26
2023-06-03T06:24:12.319Z,19.92
2023-06-03T06:29:14.770Z,19.54
2023-06-03T06:34:17.735Z,19.95
2023-06-03T06:39:34.220Z,19.65
2023-06-03T06:44:46.226Z,20.43
2023-06-03T06:49:49.562Z,20.11
2023-06-03T06:54:54.303Z,20.43
2023-06-03T06:59:57.545Z,21.12
2023-06-03T07:05:00.360Z,21.96
2023-06-03T07:10:03.361Z,21.86
2023-06-03T07:15:05.791Z,21.53
2023-06-03T07:20:08.143Z,21.61
2023-06-03T07:25:20.777Z,22.48
2023-06-03T07:30:22.851Z,21.22
2023-06-03T07:35:24.700Z,21.58
2023-06-03T07:40:41.920Z,21.77
2023-06-03T07:45:44.224Z,22.60
2023-06-03T07:50:47.638Z,23.49
2023-06-03T07:55:49.711Z,22.52
2023-06-03T08:00:52.339Z,23.70
2023-06-03T08:05:54.021Z,23.80
2023-06-03T08:10:55.673Z,23.26
2023-06-03T08:15:57.480Z,23.52
2023-06-03T08:21:03.522Z,23.39
2023-06-03T08:26:05.758Z,23.96
2023-06-03T08:31:08.155Z,23.75
2023-06-03T08:36:09.890Z,25.34
2023-06-03T08:41:11.644Z,24.56
2023-06-03T08:46:23.351Z,24.49
2023-06-03T08:51:25.072Z,25.02
2023-06-03T08:56:27.963Z,24.67
2023-06-03T09:01:39.696Z,24.10
2023-06-03T09:06:45.074Z,24.29
2023-06-03T09:11:47.064Z,24.76
2023-06-03T09:16:48.848Z,24.50
2023-06-03T09:21:53.173Z,24.02
2023-06-03T09:26:56.130Z,24.72
2023-06-03T09:31:58.684Z,25.23
2023-06-03T09:37:08.120Z,24.94
2023-06-03T09:42:10.247Z,25.50
2023-06-03T09:47:12.411Z,24.70
2023-06-03T09:52:34.361Z,25.82
2023-06-03T09:57:38.293Z,26.40
2023-06-03T10:02:43.398Z,26.39
2023-06-03T10:07:48.671Z,26.13
2023-06-03T10:12:51.486Z,26.90
2023-06-03T10:17:53.215Z,26.07
2023-06-03T10:22:55.192Z,26.63
2023-06-03T10:27:57.937Z,26.06
2023-06-03T10:33:01.418Z,27.15
2023-06-03T10:38:05.028Z,27.00
2023-06-03T10:43:10.277Z,26.40
2023-06-03T10:48:16.447Z,26.78
2023-06-03T10:53:45.885Z,26.54
2023-06-03T10:59:00.357Z,26.97
2023-06-03T11:04:02.025Z,26.80
2023-06-03T11:09:08.296Z,27.98
2023-06-03T11:14:40.179Z,27.82
2023-06-03T11:19:56.294Z,27.26
2023-06-03T11:24:59.383Z,30.62
2023-06-03T11:30:03.366Z,28.20
2023-06-03T11:35:05.667Z,29.09
2023-06-03T11:40:08.267Z,29.17
2023-06-03T11:45:22.196Z,28.38
2023-06-03T11:50:27.587Z,28.95
2023-06-03T11:55:34.561Z,28.48
2023-06-03T12:00:36.675Z,28.69
2023-06-03T12:05:55.563Z,29.35
2023-06-03T12:10:57.165Z,27.86
2023-06-03T12:15:58.962Z,28.08
2023-06-03T12:21:23.073Z,30.71
2023-06-03T12:26:25.987Z,28.74
2023-06-03T12:31:28.115Z,28.06
2023-06-03T12:36:50.133Z,28.80
2023-06-03T12:41:53.044Z,29.17
2023-06-03T12:47:02.337Z,27.99
2023-06-03T12:52:21.933Z,27.83
2023-06-03T12:57:24.462Z,27.96
2023-06-03T13:02:26.748Z,28.68
2023-06-03T13:07:29.834Z,30.00
2023-06-03T13:12:32.766Z,28.99
2023-06-03T13:17:35.853Z,28.49
2023-06-03T13:22:40.455Z,28.43
2023-06-03T13:27:42.274Z,27.83
2023-06-03T13:32:44.553Z,29.01
2023-06-03T13:37:46.274Z,29.72
2023-06-03T13:42:49.489Z,31.02
2023-06-03T13:47:52.011Z,28.99
2023-06-03T13:52:53.739Z,28.06
2023-06-03T13:57:55.748Z,28.16
2023-06-03T14:02:57.737Z,27.77
2023-06-03T14:07:59.690Z,28.63
2023-06-03T14:13:01.716Z,29.52
2023-06-03T14:18:03.979Z,28.53
2023-06-03T14:23:06.763Z,30.40
2023-06-03T14:28:08.525Z,28.93
2023-06-03T14:33:10.823Z,31.17
2023-06-03T14:38:12.482Z,28.71
2023-06-03T14:43:15.382Z,28.74
2023-06-03T14:48:17.452Z,31.05
2023-06-03T14:53:19.336Z,31.62
2023-06-03T14:58:21.573Z,31.65
2023-06-03T15:03:23.442Z,29.42
2023-06-03T15:08:26.699Z,29.11
2023-06-03T15:13:28.542Z,29.31
2023-06-03T15:18:30.759Z,29.13
2023-06-03T15:23:32.855Z,28.53
2023-06-03T15:28:34.768Z,28.83
2023-06-03T15:33:36.422Z,29.83
2023-06-03T15:38:38.190Z,27.65
2023-06-03T15:43:40.056Z,28.29
2023-06-03T15:48:41.834Z,28.59
2023-06-03T15:53:43.555Z,27.70
2023-06-03T15:58:45.427Z,28.43
2023-06-03T16:03:47.316Z,28.78
2023-06-03T16:08:49.487Z,30.03
2023-06-03T16:13:51.577Z,29.02
2023-06-03T16:18:53.143Z,28.36
2023-06-03T16:23:54.933Z,27.84
2023-06-03T16:28:56.939Z,28.18
2023-06-03T16:34:01.182Z,28.01
2023-06-03T16:39:03.297Z,28.03
2023-06-03T16:44:05.254Z,27.31
2023-06-03T16:49:07.156Z,27.46
2023-06-03T16:54:09.244Z,26.56
2023-06-03T16:59:11.162Z,27.33
2023-06-03T17:04:12.836Z,27.55
2023-06-03T17:09:15.268Z,26.86
2023-06-03T17:14:17.094Z,26.39
2023-06-03T17:19:19.166Z,26.85
2023-06-03T17:24:21.101Z,25.67
2023-06-03T17:29:23.216Z,25.87
2023-06-03T17:34:25.263Z,26.39
2023-06-03T17:39:27.246Z,25.91
2023-06-03T17:44:29.179Z,25.92
2023-06-03T17:49:31.307Z,25.66
2023-06-03T17:54:33.218Z,25.23
2023-06-03T17:59:36.294Z,24.90
2023-06-03T18:04:38.330Z,24.61
2023-06-03T18:09:40.354Z,24.68
2023-06-03T18:14:42.501Z,24.03
2023-06-03T18:19:44.832Z,24.11
2023-06-03T18:24:46.810Z,23.73
2023-06-03T18:29:48.886Z,23.61
2023-06-03T18:34:51.035Z,23.39
2023-06-03T18:39:53.758Z,23.10
2023-06-03T18:44:55.376Z,22.85
2023-06-03T18:49:57.380Z,22.77
2023-06-03T18:54:59.310Z,22.56
2023-06-03T19:00:04.464Z,22.45
2023-06-03T19:05:06.729Z,22.32
2023-06-03T19:10:09.329Z,22.21
2023-06-03T19:15:13.498Z,21.95
2023-06-03T19:20:15.757Z,21.82
2023-06-03T19:30:19.870Z,21.55
2023-06-03T19:35:21.932Z,21.35
2023-06-03T19:40:23.952Z,21.20
2023-06-03T19:45:27.503Z,21.10
2023-06-03T19:50:30.559Z,20.86
2023-06-03T19:55:32.172Z,20.83
2023-06-03T20:00:34.329Z,20.66
2023-06-03T20:05:36.737Z,20.58
2023-06-03T20:10:39.532Z,20.41
2023-06-03T20:15:41.188Z,20.32
2023-06-03T20:20:43.198Z,20.33
2023-06-03T20:25:44.891Z,20.14
2023-06-03T20:30:46.766Z,20.05
2023-06-03T20:35:48.652Z,19.87
2023-06-03T20:40:50.276Z,19.77
2023-06-03T20:45:52.639Z,19.59
2023-06-03T20:50:55.189Z,19.55
2023-06-03T20:55:57.150Z,19.46
2023-06-03T21:00:59.057Z,19.38
2023-06-03T21:06:00.673Z,19.25
2023-06-03T21:11:02.891Z,19.19
2023-06-03T21:16:04.891Z,19.12
2023-06-03T21:21:06.780Z,19.06
2023-06-03T21:26:08.778Z,18.92
2023-06-03T21:31:10.783Z,18.80
2023-06-03T21:36:12.596Z,18.78
2023-06-03T21:41:14.274Z,18.68
2023-06-03T21:46:15.925Z,18.63
2023-06-03T21:51:18.151Z,18.53
2023-06-03T21:56:20.019Z,18.36
2023-06-03T22:01:21.695Z,18.29
2023-06-03T22:06:24.326Z,18.16
2023-06-03T22:11:26.785Z,18.22
2023-06-03T22:16:28.634Z,18.07
2023-06-03T22:21:30.413Z,18.01
2023-06-03T22:26:32.078Z,17.85
2023-06-03T22:31:34.833Z,17.68
2023-06-03T22:36:37.081Z,17.36
2023-06-03T22:41:38.702Z,17.19
2023-06-03T22:46:40.512Z,16.77
2023-06-03T22:51:42.269Z,16.24
2023-06-03T22:56:43.919Z,16.15
2023-06-03T23:01:45.656Z,16.03
2023-06-03T23:06:47.291Z,15.74
2023-06-03T23:11:48.894Z,15.52
2023-06-03T23:16:50.607Z,15.30
2023-06-03T23:21:54.424Z,15.03
2023-06-03T23:26:56.153Z,14.84
2023-06-03T23:31:57.993Z,14.76
2023-06-03T23:36:59.665Z,14.66
2023-06-03T23:42:01.445Z,14.73
2023-06-03T23:47:03.236Z,14.69
2023-06-03T23:52:05.263Z,14.62
2023-06-03T23:57:06.913Z,14.76
